createdAt,value
2022-11-09T00:01:38.024Z,9.90
2022-11-09T00:06:39.511Z,7.60
2022-11-09T00:11:40.887Z,7.40
2022-11-09T00:16:42.347Z,6.50
2022-11-09T00:21:43.694Z,7.05
2022-11-09T00:26:45.070Z,5.88
2022-11-09T00:31:46.464Z,6.22
2022-11-09T00:36:47.840Z,5.50
2022-11-09T00:41:49.189Z,5.13
2022-11-09T00:46:50.948Z,5.43
2022-11-09T00:51:52.395Z,5.95
2022-11-09T00:56:53.789Z,4.72
2022-11-09T01:01:55.186Z,4.93
2022-11-09T01:06:56.691Z,5.57
2022-11-09T01:11:58.157Z,5.07
2022-11-09T01:16:59.518Z,4.63
2022-11-09T01:22:00.862Z,5.65
2022-11-09T01:27:02.218Z,6.10
2022-11-09T01:32:03.896Z,5.57
2022-11-09T01:37:05.478Z,6.55
2022-11-09T01:42:06.834Z,5.63
2022-11-09T01:47:23.230Z,6.20
2022-11-09T01:52:32.081Z,7.25
2022-11-09T01:57:38.385Z,7.25
2022-11-09T02:02:55.283Z,7.97
2022-11-09T02:07:58.289Z,8.20
2022-11-09T02:13:00.454Z,6.85
2022-11-09T02:18:03.787Z,7.70
2022-11-09T02:23:05.818Z,7.47
2022-11-09T02:28:07.976Z,8.75
2022-11-09T02:33:09.354Z,7.70
2022-11-09T02:38:12.678Z,10.43
2022-11-09T02:43:15.459Z,8.75
2022-11-09T02:48:17.018Z,8.60
2022-11-09T02:53:18.682Z,8.85
2022-11-09T02:58:20.253Z,8.05
2022-11-09T03:03:24.411Z,9.25
2022-11-09T03:08:25.821Z,9.32
2022-11-09T03:13:27.219Z,9.63
2022-11-09T03:18:28.545Z,9.98
2022-11-09T03:23:30.155Z,10.38
2022-11-09T03:28:31.522Z,11.07
2022-11-09T03:33:33.005Z,9.82
2022-11-09T03:38:34.628Z,10.57
2022-11-09T03:43:35.992Z,9.35
2022-11-09T03:48:37.386Z,9.63
2022-11-09T03:53:38.738Z,10.32
2022-11-09T03:58:40.118Z,10.60
2022-11-09T04:03:41.569Z,10.25
2022-11-09T04:08:47.006Z,10.52
2022-11-09T04:13:51.417Z,10.88
2022-11-09T04:18:52.818Z,8.70
2022-11-09T04:23:54.152Z,9.10
2022-11-09T04:28:55.507Z,8.90
2022-11-09T04:33:56.895Z,9.35
2022-11-09T04:38:58.266Z,10.40
2022-11-09T04:43:59.617Z,9.95
2022-11-09T04:49:01.134Z,10.50
2022-11-09T04:54:02.496Z,10.73
2022-11-09T04:59:03.857Z,9.38
2022-11-09T05:04:05.249Z,10.30
2022-11-09T05:09:07.622Z,10.80
2022-11-09T05:14:09.003Z,9.90
2022-11-09T05:19:10.329Z,9.23
2022-11-09T05:24:11.847Z,8.50
2022-11-09T05:29:13.542Z,7.68
2022-11-09T05:34:15.135Z,6.07
2022-11-09T05:39:16.485Z,5.82
2022-11-09T05:44:17.864Z,5.43
2022-11-09T05:49:19.203Z,5.72
2022-11-09T05:54:20.533Z,6.38
2022-11-09T05:59:21.937Z,20.55
2022-11-09T06:04:23.294Z,7.00
2022-11-09T06:09:24.704Z,7.90
2022-11-09T06:14:26.099Z,9.05
2022-11-09T06:19:27.469Z,8.27
2022-11-09T06:24:29.032Z,9.98
2022-11-09T06:29:30.387Z,9.48
2022-11-09T06:34:31.789Z,10.55
2022-11-09T06:39:33.127Z,10.60
2022-11-09T06:44:34.470Z,11.80
2022-11-09T06:49:35.885Z,13.30
2022-11-09T06:54:37.232Z,13.13
2022-11-09T06:59:38.584Z,14.75
2022-11-09T07:04:39.931Z,14.73
2022-11-09T07:09:41.286Z,15.15
2022-11-09T07:14:42.659Z,16.25
2022-11-09T07:19:43.988Z,15.05
2022-11-09T07:24:45.453Z,14.23
2022-11-09T07:29:46.810Z,13.98
2022-11-09T07:34:48.227Z,14.85
2022-11-09T07:39:49.594Z,15.30
2022-11-09T07:44:51.297Z,14.05
2022-11-09T07:49:52.665Z,14.75
2022-11-09T07:54:54.029Z,11.93
2022-11-09T07:59:55.454Z,12.48
2022-11-09T08:04:56.857Z,10.65
2022-11-09T08:09:58.461Z,10.90
2022-11-09T08:14:59.799Z,9.35
2022-11-09T08:20:01.177Z,9.52
2022-11-09T08:25:02.596Z,9.05
2022-11-09T08:30:04.299Z,9.27
2022-11-09T08:35:06.190Z,8.80
2022-11-09T08:40:08.926Z,8.05
2022-11-09T08:45:11.303Z,8.07
2022-11-09T08:50:14.498Z,7.85
2022-11-09T08:55:15.962Z,9.63
2022-11-09T09:00:17.664Z,7.65
2022-11-09T09:05:19.855Z,7.05
2022-11-09T09:10:21.306Z,6.97
2022-11-09T09:15:23.149Z,7.57
2022-11-09T09:20:24.524Z,6.05
2022-11-09T09:25:26.875Z,6.00
2022-11-09T09:30:28.324Z,6.75
2022-11-09T09:35:29.754Z,5.32
2022-11-09T09:40:43.549Z,5.22
2022-11-09T09:45:51.704Z,4.68
2022-11-09T09:50:57.364Z,4.03
2022-11-09T09:56:17.042Z,4.10
2022-11-09T10:01:23.925Z,3.85
2022-11-09T10:06:46.299Z,3.33
2022-11-09T10:12:14.469Z,2.90
2022-11-09T10:17:45.478Z,1.88
2022-11-09T10:23:20.931Z,1.92
2022-11-09T10:28:27.197Z,1.10
2022-11-09T10:33:28.953Z,1.13
2022-11-09T10:38:40.085Z,0.80
2022-11-09T10:43:41.450Z,0.68
2022-11-09T10:48:42.888Z,1.25
2022-11-09T10:53:44.315Z,0.70
2022-11-09T10:58:49.083Z,0.60
2022-11-09T11:03:53.171Z,0.50
2022-11-09T11:08:57.338Z,0.45
2022-11-09T11:14:28.983Z,0.85
2022-11-09T11:19:41.346Z,0.65
2022-11-09T11:24:42.713Z,0.43
2022-11-09T11:29:51.952Z,0.50
2022-11-09T11:35:00.392Z,0.40
2022-11-09T11:40:15.872Z,0.40
2022-11-09T11:45:42.058Z,0.40
2022-11-09T11:51:15.984Z,0.40
2022-11-09T11:56:17.296Z,0.32
2022-11-09T12:01:53.852Z,0.40
2022-11-09T12:07:12.864Z,0.40
2022-11-09T12:12:40.870Z,0.45
2022-11-09T12:18:15.309Z,0.38
2022-11-09T12:23:22.813Z,0.30
2022-11-09T12:28:55.878Z,0.63
2022-11-09T12:34:03.154Z,0.20
2022-11-09T12:39:37.603Z,0.20
2022-11-09T12:45:12.184Z,0.30
2022-11-09T12:50:18.183Z,0.30
2022-11-09T12:55:36.333Z,0.25
2022-11-09T13:00:44.260Z,0.30
2022-11-09T13:05:47.529Z,0.60
2022-11-09T13:11:08.472Z,0.60
2022-11-09T13:16:19.088Z,0.40
2022-11-09T13:21:23.214Z,0.20
2022-11-09T13:26:30.734Z,0.40
2022-11-09T13:32:09.688Z,0.25
2022-11-09T13:37:41.802Z,1.05
2022-11-09T13:42:43.271Z,0.20
2022-11-09T13:47:51.956Z,0.47
2022-11-09T13:52:55.546Z,0.30
2022-11-09T13:58:04.723Z,0.30
2022-11-09T14:03:26.478Z,0.30
2022-11-09T14:08:30.638Z,0.32
2022-11-09T14:14:03.280Z,0.30
2022-11-09T14:19:23.018Z,0.30
2022-11-09T14:24:34.519Z,0.30
2022-11-09T14:29:37.916Z,0.30
2022-11-09T14:34:39.258Z,0.25
2022-11-09T14:39:40.947Z,0.30
2022-11-09T14:44:43.996Z,0.40
2022-11-09T14:49:46.090Z,0.40
2022-11-09T14:54:49.347Z,0.30
2022-11-09T14:59:50.939Z,0.40
2022-11-09T15:04:54.399Z,0.20
2022-11-09T15:10:01.684Z,0.35
2022-11-09T15:15:06.664Z,0.40
2022-11-09T15:20:07.964Z,0.40
2022-11-09T15:25:20.834Z,1.20
2022-11-09T15:30:31.681Z,0.47
2022-11-09T15:35:33.052Z,0.50
2022-11-09T15:40:34.385Z,0.60
2022-11-09T15:45:35.749Z,0.60
2022-11-09T15:50:37.333Z,0.50
2022-11-09T15:55:38.758Z,1.38
2022-11-09T16:00:40.247Z,0.80
2022-11-09T16:05:41.649Z,0.85
2022-11-09T16:10:44.369Z,0.70
2022-11-09T16:15:45.758Z,0.98
2022-11-09T16:20:47.377Z,1.00
2022-11-09T16:25:48.800Z,0.50
2022-11-09T16:30:50.210Z,0.50
2022-11-09T16:35:53.681Z,0.80
2022-11-09T16:40:55.095Z,0.90
2022-11-09T16:45:57.155Z,1.20
2022-11-09T16:50:58.705Z,0.55
2022-11-09T16:56:00.113Z,0.50
2022-11-09T17:01:11.314Z,0.55
2022-11-09T17:06:14.099Z,0.52
2022-11-09T17:11:15.571Z,1.10
2022-11-09T17:16:20.208Z,0.90
2022-11-09T17:21:23.213Z,1.75
2022-11-09T17:26:25.781Z,0.70
2022-11-09T17:31:27.178Z,1.20
2022-11-09T17:36:56.827Z,0.80
2022-11-09T17:41:50.408Z,0.70
2022-11-09T17:46:52.055Z,0.70
2022-11-09T17:51:53.553Z,1.00
2022-11-09T17:56:55.129Z,1.00
2022-11-09T18:01:56.521Z,1.02
2022-11-09T18:06:58.033Z,0.90
2022-11-09T18:11:59.466Z,1.58
2022-11-09T18:17:01.566Z,0.88
2022-11-09T18:22:04.877Z,0.80
2022-11-09T18:27:08.007Z,0.93
2022-11-09T18:32:09.448Z,1.10
2022-11-09T18:37:10.852Z,1.73
2022-11-09T18:42:12.394Z,1.58
2022-11-09T18:47:15.049Z,1.33
2022-11-09T18:52:16.437Z,1.73
2022-11-09T18:57:20.021Z,1.67
2022-11-09T19:02:21.641Z,2.22
2022-11-09T19:07:23.007Z,1.65
2022-11-09T19:12:25.055Z,1.80
2022-11-09T19:17:26.463Z,1.15
2022-11-09T19:22:29.099Z,1.15
2022-11-09T19:27:30.468Z,1.02
2022-11-09T19:32:31.909Z,1.10
2022-11-09T19:37:33.288Z,0.95
2022-11-09T19:42:34.653Z,1.30
2022-11-09T19:47:36.010Z,1.15
2022-11-09T19:52:38.765Z,0.80
2022-11-09T19:57:40.134Z,1.75
2022-11-09T20:02:41.488Z,1.00
2022-11-09T20:07:43.470Z,0.82
2022-11-09T20:12:50.542Z,0.70
2022-11-09T20:17:52.257Z,1.17
2022-11-09T20:22:53.605Z,1.02
2022-11-09T20:27:56.097Z,1.20
2022-11-09T20:32:57.477Z,1.05
2022-11-09T20:37:58.980Z,1.00
2022-11-09T20:43:00.316Z,1.23
2022-11-09T20:48:14.792Z,1.20
2022-11-09T20:53:23.009Z,1.70
2022-11-09T20:58:26.729Z,1.27
2022-11-09T21:03:28.149Z,1.25
2022-11-09T21:08:29.579Z,1.05
2022-11-09T21:13:31.645Z,1.10
2022-11-09T21:18:33.384Z,1.00
2022-11-09T21:23:54.784Z,0.77
2022-11-09T21:29:14.812Z,0.73
2022-11-09T21:34:16.220Z,1.02
2022-11-09T21:39:17.585Z,1.13
2022-11-09T21:44:19.038Z,1.10
2022-11-09T21:49:20.381Z,0.90
2022-11-09T21:54:22.640Z,1.17
2022-11-09T21:59:24.462Z,1.20
2022-11-09T22:04:25.853Z,1.50
2022-11-09T22:09:32.414Z,1.35
2022-11-09T22:14:55.713Z,1.40
2022-11-09T22:20:15.717Z,1.92
2022-11-09T22:25:17.181Z,1.90
2022-11-09T22:30:18.680Z,0.70
2022-11-09T22:35:20.086Z,1.02
2022-11-09T22:40:21.815Z,1.33
2022-11-09T22:45:23.155Z,1.45
2022-11-09T22:50:24.546Z,2.30
2022-11-09T22:55:25.926Z,1.90
2022-11-09T23:00:27.322Z,1.45
2022-11-09T23:05:28.950Z,1.83
2022-11-09T23:10:30.397Z,2.00
2022-11-09T23:15:31.846Z,2.25
2022-11-09T23:20:35.700Z,2.10
2022-11-09T23:25:56.417Z,3.05
2022-11-09T23:31:07.192Z,2.30
2022-11-09T23:36:09.217Z,2.00
2022-11-09T23:41:12.479Z,2.78
2022-11-09T23:46:14.580Z,2.70
2022-11-09T23:51:18.387Z,2.33
2022-11-09T23:56:21.150Z,2.70
